Time;durP1;ratioP1;P1;durP2;ratioP2;P2;SDS_P1;SDS_P2;PMS_P1;PMS_P2;Temp;Humidity;BMP_temperature;BMP_pressure;BME280_temperature;BME280_humidity;BME280_pressure;Samples;Min_cycle;Max_cycle;Signal;HPM_P1;HPM_P2
2022/05/15 00:02:19;;;;;;;7.25;2.97;;;;;;;20.41;36.83;100614.34;5395221;32;46960;-68
2022/05/15 00:05:21;;;;;;;5.85;2.65;;;;;;;20.42;36.34;100611.56;5382080;32;44394;-69
2022/05/15 00:08:25;;;;;;;8.07;2.90;;;;;;;18.93;39.45;100626.94;5399825;32;34321;-66
2022/05/15 00:11:27;;;;;;;8.30;2.80;;;;;;;18.84;39.79;100626.72;5368271;32;34571;-66
2022/05/15 00:14:30;;;;;;;7.65;2.65;;;;;;;18.78;40.27;100635.12;5375519;32;35946;-69
2022/05/15 00:17:32;;;;;;;;;;;;;;;19.34;39.13;100639.12;5368937;32;35065;-66
2022/05/15 00:20:35;;;;;;;4.82;2.60;;;;;;;19.19;39.92;100632.22;5367932;32;35607;-67
2022/05/15 00:23:37;;;;;;;6.35;2.60;;;;;;;19.04;39.97;100635.97;5392310;32;34961;-66
2022/05/15 00:26:39;;;;;;;;;;;;;;;18.69;40.70;100636.63;5359512;32;35056;-70
2022/05/15 00:29:41;;;;;;;8.63;2.70;;;;;;;19.33;39.11;100632.09;5373981;32;35292;-66
2022/05/15 00:32:44;;;;;;;8.48;2.67;;;;;;;19.24;39.28;100627.41;5381694;32;34025;-69
2022/05/15 00:35:46;;;;;;;4.70;2.50;;;;;;;18.77;40.64;100633.41;5397345;32;34609;-66
2022/05/15 00:38:48;;;;;;;5.82;2.58;;;;;;;18.62;40.92;100630.00;5370260;32;35452;-66
2022/05/15 00:41:50;;;;;;;8.37;2.70;;;;;;;18.64;41.23;100644.03;5381462;32;44700;-67
2022/05/15 00:44:52;;;;;;;6.43;2.77;;;;;;;18.41;41.48;100633.13;5399182;32;34320;-71
2022/05/15 00:47:55;;;;;;;7.37;2.72;;;;;;;18.80;40.24;100642.03;5381053;32;34334;-66
2022/05/15 00:50:57;;;;;;;6.10;2.40;;;;;;;18.78;40.44;100640.44;5398655;32;35144;-68
2022/05/15 00:54:28;;;;;;;7.10;2.90;;;;;;;18.98;40.18;100637.25;5382941;32;34107;-68
2022/05/15 00:57:38;;;;;;;5.55;2.40;;;;;;;19.25;39.35;100634.44;5382949;32;34965;-72
2022/05/15 01:00:42;;;;;;;6.93;2.67;;;;;;;18.73;40.52;100638.09;5388844;32;34672;-66
2022/05/15 01:03:45;;;;;;;6.18;2.50;;;;;;;19.12;39.51;100633.59;5369014;32;34464;-69
2022/05/15 01:06:47;;;;;;;11.35;3.40;;;;;;;18.29;41.38;100627.78;5382222;32;34921;-70
2022/05/15 01:09:50;;;;;;;7.55;2.80;;;;;;;18.29;41.56;100628.66;5368852;32;42731;-66
2022/05/15 01:12:52;;;;;;;;;;;;;;;17.85;42.52;100618.31;5369901;32;34230;-69
2022/05/15 01:15:54;;;;;;;7.80;2.83;;;;;;;18.22;41.92;100627.34;5370629;32;35550;-66
2022/05/15 01:18:58;;;;;;;8.87;2.97;;;;;;;17.67;43.25;100625.66;5383562;32;35185;-69
2022/05/15 01:22:00;;;;;;;6.25;2.50;;;;;;;17.96;42.51;100615.78;5395131;32;34995;-66
2022/05/15 01:25:04;;;;;;;11.60;4.47;;;;;;;18.68;41.40;100632.25;5369325;32;34116;-66
2022/05/15 01:28:10;;;;;;;7.85;3.15;;;;;;;19.44;39.82;100626.81;5381895;32;34344;-68
2022/05/15 01:31:13;;;;;;;6.97;2.90;;;;;;;18.27;42.21;100630.56;5366987;32;34273;-69
2022/05/15 01:34:15;;;;;;;6.82;2.72;;;;;;;19.01;41.00;100633.53;5393926;32;35386;-69
2022/05/15 01:37:17;;;;;;;7.97;3.10;;;;;;;18.07;43.31;100637.22;5388502;32;34529;-70
2022/05/15 01:40:20;;;;;;;8.87;4.00;;;;;;;19.20;40.81;100631.28;5381174;32;46222;-66
2022/05/15 01:43:22;;;;;;;5.32;3.00;;;;;;;19.27;40.68;100632.53;5378216;32;34678;-69
2022/05/15 01:46:26;;;;;;;6.53;2.70;;;;;;;19.26;40.81;100640.66;5381237;32;34635;-66
2022/05/15 01:49:28;;;;;;;4.50;2.72;;;;;;;18.99;41.38;100638.09;5385451;32;35402;-66
2022/05/15 01:52:30;;;;;;;4.50;2.60;;;;;;;18.70;42.00;100630.34;5381311;32;35307;-66
2022/05/15 01:55:32;;;;;;;8.17;3.20;;;;;;;18.77;42.03;100649.41;5387724;32;34961;-69
2022/05/15 01:58:34;;;;;;;9.10;3.47;;;;;;;18.41;42.86;100642.94;5392349;32;34644;-68
2022/05/15 02:01:37;;;;;;;5.83;2.93;;;;;;;18.70;42.43;100650.78;5380785;32;34103;-68
2022/05/15 02:04:39;;;;;;;6.37;3.17;;;;;;;18.77;42.51;100649.41;5398631;32;35040;-68
2022/05/15 02:07:41;;;;;;;12.60;5.90;;;;;;;19.08;41.59;100651.63;5379879;32;35020;-68
2022/05/15 02:10:44;;;;;;;6.13;3.00;;;;;;;19.30;41.08;100648.28;5394866;32;35075;-71
2022/05/15 02:13:46;;;;;;;;;;;;;;;18.74;42.25;100661.13;5365738;32;34888;-65
2022/05/15 02:16:48;;;;;;;5.60;3.00;;;;;;;18.58;42.89;100661.28;5387777;32;35040;-71
2022/05/15 02:19:50;;;;;;;6.40;3.35;;;;;;;17.68;44.90;100658.41;5392830;32;44382;-69
2022/05/15 02:22:53;;;;;;;7.32;2.97;;;;;;;17.85;44.89;100658.19;5377429;32;34462;-66
2022/05/15 02:25:55;;;;;;;6.68;2.80;;;;;;;17.30;46.03;100657.22;5383273;32;34816;-71
2022/05/15 02:28:57;;;;;;;5.50;2.70;;;;;;;17.33;46.16;100659.69;5382253;32;34633;-70
2022/05/15 02:31:59;;;;;;;6.03;3.20;;;;;;;18.17;44.46;100649.91;5383803;32;35347;-67
2022/05/15 02:35:02;;;;;;;7.28;3.22;;;;;;;18.70;43.07;100653.44;5383025;32;35030;-66
2022/05/15 02:38:04;;;;;;;7.30;3.12;;;;;;;18.33;44.04;100651.44;5386621;32;35650;-69
2022/05/15 02:41:06;;;;;;;;;;;;;;;18.04;44.84;100657.84;5379305;32;35990;-67
2022/05/15 02:44:09;;;;;;;5.95;3.05;;;;;;;17.96;45.18;100653.00;5364590;32;34480;-68
2022/05/15 02:47:11;;;;;;;8.88;3.35;;;;;;;18.21;45.20;100657.56;5396586;32;34692;-65
2022/05/15 02:53:39;;;;;;;6.17;3.23;;;;;;;18.73;44.16;100663.87;5392244;32;35741;-67
2022/05/15 02:56:41;;;;;;;7.03;3.12;;;;;;;18.92;44.25;100669.62;5371460;32;34525;-68
2022/05/15 02:59:43;;;;;;;6.30;3.60;;;;;;;18.73;45.03;100667.37;5368265;32;35264;-67
2022/05/15 03:02:45;;;;;;;10.10;3.77;;;;;;;18.04;47.14;100677.31;5383028;32;35120;-65
2022/05/15 03:05:47;;;;;;;9.07;3.70;;;;;;;17.56;48.35;100673.31;5380499;32;35179;-69
2022/05/15 03:08:51;;;;;;;9.13;3.50;;;;;;;17.41;49.07;100679.62;5397397;32;46510;-66
2022/05/15 03:11:54;;;;;;;7.63;3.73;;;;;;;16.97;50.48;100680.56;5363200;32;34854;-67
2022/05/15 03:14:56;;;;;;;8.17;3.57;;;;;;;17.23;49.28;100677.16;5371330;32;36226;-71
2022/05/15 03:17:58;;;;;;;8.70;3.62;;;;;;;16.83;49.75;100686.69;5386800;32;34875;-69
2022/05/15 03:21:00;;;;;;;11.27;3.50;;;;;;;16.81;49.44;100683.28;5381536;32;35609;-69
2022/05/15 03:24:08;;;;;;;7.93;3.47;;;;;;;17.00;49.10;100683.00;5389941;32;34127;-69
2022/05/15 03:27:10;;;;;;;8.18;3.53;;;;;;;17.48;47.50;100687.09;5362318;32;37125;-71
2022/05/15 03:30:12;;;;;;;7.00;3.70;;;;;;;17.35;47.55;100691.47;5399782;32;34625;-66
2022/05/15 03:33:15;;;;;;;8.03;3.87;;;;;;;17.37;47.77;100696.69;5382655;32;34987;-69
2022/05/15 03:36:17;;;;;;;7.40;3.55;;;;;;;17.50;47.62;100693.16;5374721;32;34979;-66
2022/05/15 03:39:21;;;;;;;7.77;3.80;;;;;;;17.52;47.64;100695.75;5380097;32;44890;-69
2022/05/15 03:42:24;;;;;;;7.70;3.43;;;;;;;17.48;47.91;100683.59;5368313;32;34639;-68
2022/05/15 03:45:27;;;;;;;9.67;3.83;;;;;;;17.23;48.94;100695.75;5385015;32;34886;-66
2022/05/15 03:48:29;;;;;;;12.18;3.85;;;;;;;16.97;49.29;100701.78;5368920;32;34104;-69
2022/05/15 03:51:31;;;;;;;9.00;4.17;;;;;;;17.45;48.33;100700.59;5398959;32;34833;-69
2022/05/15 03:54:34;;;;;;;6.10;3.37;;;;;;;18.49;45.63;100699.16;5383809;32;35025;-69
2022/05/15 03:57:36;;;;;;;9.27;3.53;;;;;;;17.74;47.75;100696.09;5372645;32;35177;-68
2022/05/15 04:00:38;;;;;;;6.62;3.45;;;;;;;18.63;45.78;100704.41;5382392;32;35449;-66
2022/05/15 04:03:40;;;;;;;8.77;3.60;;;;;;;18.47;46.14;100697.56;5382841;32;35969;-69
2022/05/15 04:06:43;;;;;;;10.53;3.67;;;;;;;17.95;47.57;100712.47;5398828;32;35345;-66
2022/05/15 04:09:45;;;;;;;9.27;3.87;;;;;;;17.23;50.06;100710.81;5369479;32;35114;-69
2022/05/15 04:12:48;;;;;;;5.63;3.33;;;;;;;18.23;47.24;100700.06;5360354;32;37037;-66
2022/05/15 04:15:50;;;;;;;6.30;3.30;;;;;;;18.32;46.70;100702.94;5383377;32;46784;-70
2022/05/15 04:18:52;;;;;;;7.28;3.53;;;;;;;18.85;44.78;100703.81;5367243;32;34159;-70
2022/05/15 04:21:57;;;;;;;7.93;3.73;;;;;;;18.87;44.62;100704.59;5395948;32;34934;-67
2022/05/15 04:24:59;;;;;;;8.10;3.72;;;;;;;18.97;43.81;100709.28;5355554;32;35288;-69
2022/05/15 04:28:01;;;;;;;8.60;3.83;;;;;;;18.07;45.90;100718.81;5397601;32;34745;-66
2022/05/15 04:31:03;;;;;;;7.27;3.50;;;;;;;18.49;45.21;100716.94;5383301;32;34535;-67
2022/05/15 04:34:06;;;;;;;7.43;3.17;;;;;;;18.76;43.79;100708.94;5398871;32;34813;-67
2022/05/15 04:37:08;;;;;;;7.20;2.83;;;;;;;18.88;43.58;100711.63;5382836;32;33830;-66
2022/05/15 04:40:12;;;;;;;6.55;2.75;;;;;;;19.36;42.02;100714.47;5383389;32;34634;-69
2022/05/15 04:43:14;;;;;;;10.13;3.28;;;;;;;20.27;40.13;100707.00;5384650;32;35029;-66
2022/05/15 04:46:16;;;;;;;4.72;2.55;;;;;;;20.43;39.04;100708.53;5381956;32;35292;-69
2022/05/15 04:49:19;;;;;;;6.18;3.08;;;;;;;20.80;38.61;100722.63;5399099;32;44876;-69
2022/05/15 04:52:21;;;;;;;7.80;3.28;;;;;;;21.97;35.98;100715.16;5380942;32;46672;-69
2022/05/15 04:55:23;;;;;;;9.98;2.70;;;;;;;21.56;36.58;100723.84;5396358;32;34652;-67
2022/05/15 04:58:25;;;;;;;5.93;2.40;;;;;;;22.25;35.61;100703.06;5384545;32;35217;-67
2022/05/15 05:01:27;;;;;;;6.80;2.90;;;;;;;22.53;35.36;100714.13;5368707;32;36683;-67
2022/05/15 05:04:29;;;;;;;6.53;2.45;;;;;;;23.19;33.74;100720.97;5400103;32;34422;-69
2022/05/15 05:07:31;;;;;;;7.37;2.70;;;;;;;22.04;35.77;100726.22;5365512;32;35214;-69
2022/05/15 05:10:34;;;;;;;16.67;4.78;;;;;;;21.70;36.21;100731.59;5399631;32;34697;-67
2022/05/15 05:13:36;;;;;;;;;;;;;;;22.46;34.99;100718.31;5361126;32;34161;-67
2022/05/15 05:16:38;;;;;;;5.82;2.78;;;;;;;23.60;32.55;100724.53;5397140;32;35222;-66
2022/05/15 05:19:40;;;;;;;8.05;2.72;;;;;;;24.28;31.77;100730.97;5371658;32;34687;-66
2022/05/15 05:22:42;;;;;;;10.20;3.15;;;;;;;22.68;34.76;100734.31;5378794;32;34731;-69
2022/05/15 05:25:44;;;;;;;10.40;4.30;;;;;;;22.03;36.04;100733.41;5386272;32;34300;-69
2022/05/15 05:28:47;;;;;;;8.02;2.70;;;;;;;22.82;34.28;100733.97;5382433;32;34133;-66
2022/05/15 05:31:49;;;;;;;6.65;2.60;;;;;;;22.98;34.39;100728.19;5397520;32;45291;-66
2022/05/15 05:34:52;;;;;;;7.60;2.60;;;;;;;24.17;32.02;100731.09;5383298;32;35304;-67
2022/05/15 05:37:54;;;;;;;5.90;2.50;;;;;;;25.41;30.07;100724.06;5395285;32;35581;-67
2022/05/15 05:40:56;;;;;;;7.25;2.87;;;;;;;23.87;32.83;100736.53;5370541;32;35353;-67
2022/05/15 05:44:00;;;;;;;;;;;;;;;23.93;32.88;100742.19;5382008;32;35426;-70
2022/05/15 05:47:02;;;;;;;5.62;2.30;;;;;;;24.73;31.26;100730.44;5398786;32;35173;-71
2022/05/15 05:50:08;;;;;;;6.40;2.58;;;;;;;25.60;29.10;100723.97;5384147;32;34423;-69
2022/05/15 05:53:10;;;;;;;6.47;2.65;;;;;;;24.77;31.12;100725.59;5397339;32;34566;-66
2022/05/15 05:56:12;;;;;;;;;;;;;;;25.36;29.89;100728.03;5382729;32;34995;-66
2022/05/15 05:59:19;;;;;;;7.07;2.87;;;;;;;26.49;28.57;100726.03;5389462;32;47357;-70
2022/05/15 06:02:22;;;;;;;10.18;2.90;;;;;;;24.97;31.10;100726.41;5391435;32;34978;-71
2022/05/15 06:05:24;;;;;;;7.25;3.10;;;;;;;24.84;31.34;100737.47;5382166;32;34257;-69
2022/05/15 06:08:28;;;;;;;;;;;;;;;26.07;29.30;100731.97;5385178;32;34763;-67
2022/05/15 06:11:30;;;;;;;4.72;2.58;;;;;;;25.27;30.48;100728.09;5367864;32;34710;-67
2022/05/15 06:14:32;;;;;;;5.60;2.37;;;;;;;26.35;28.99;100732.78;5388601;32;34471;-68
2022/05/15 06:17:34;;;;;;;5.60;2.12;;;;;;;28.15;25.50;100738.34;5367471;32;34894;-66
2022/05/15 06:20:36;;;;;;;7.15;2.45;;;;;;;28.54;24.13;100733.19;5387649;32;34918;-70
2022/05/15 06:23:39;;;;;;;4.15;2.03;;;;;;;29.44;22.82;100727.69;5386468;32;34583;-69
2022/05/15 06:26:41;;;;;;;7.15;3.20;;;;;;;29.66;22.27;100735.06;5371438;32;35301;-69
2022/05/15 06:29:43;;;;;;;6.25;2.58;;;;;;;28.64;23.87;100733.00;5385160;32;34056;-68
2022/05/15 06:32:45;;;;;;;6.85;2.50;;;;;;;30.02;21.31;100731.03;5381109;32;34744;-70
2022/05/15 06:35:47;;;;;;;4.87;2.12;;;;;;;27.98;24.05;100740.16;5398378;32;36461;-70
2022/05/15 06:38:49;;;;;;;6.60;2.30;;;;;;;27.67;24.15;100747.09;5382036;32;47096;-70
2022/05/15 06:41:56;;;;;;;6.60;2.00;;;;;;;27.95;23.92;100740.50;5382711;32;34291;-67
2022/05/15 06:44:58;;;;;;;4.50;1.80;;;;;;;27.27;24.18;100730.53;5397653;32;35107;-67
2022/05/15 06:48:00;;;;;;;4.32;2.03;;;;;;;27.23;24.15;100731.00;5366104;32;35131;-70
2022/05/15 06:51:03;;;;;;;3.62;2.10;;;;;;;27.21;24.49;100733.84;5398601;32;35135;-67
2022/05/15 06:54:05;;;;;;;4.25;2.20;;;;;;;26.97;24.56;100737.19;5363156;32;34408;-70
2022/05/15 07:00:29;;;;;;;6.78;2.17;;;;;;;30.79;19.84;100722.91;5386349;32;44743;-67
2022/05/15 07:03:31;;;;;;;4.37;1.90;;;;;;;28.96;21.10;100726.78;5380670;32;34558;-71
2022/05/15 07:06:33;;;;;;;5.65;1.90;;;;;;;29.39;21.09;100724.66;5378249;32;34440;-68
2022/05/15 07:09:37;;;;;;;7.37;2.58;;;;;;;29.81;20.44;100721.63;5367593;32;34719;-68
2022/05/15 07:12:39;;;;;;;4.15;2.10;;;;;;;29.10;21.34;100727.94;5359287;32;35261;-68
2022/05/15 07:15:41;;;;;;;8.80;2.42;;;;;;;29.56;21.00;100723.62;5381915;32;35693;-72
2022/05/15 07:18:43;;;;;;;3.10;1.85;;;;;;;30.20;20.46;100710.75;5391597;32;34640;-71
2022/05/15 07:21:45;;;;;;;6.45;2.20;;;;;;;30.20;20.13;100716.19;5386011;32;35181;-71
2022/05/15 07:24:48;;;;;;;4.45;2.37;;;;;;;30.28;19.84;100715.31;5368734;32;35724;-70
2022/05/15 07:27:50;;;;;;;5.45;2.37;;;;;;;30.96;19.28;100714.41;5393876;32;47300;-69
2022/05/15 07:30:52;;;;;;;6.65;2.50;;;;;;;30.04;20.39;100715.44;5368283;32;34739;-67
2022/05/15 07:33:54;;;;;;;3.47;2.20;;;;;;;31.17;19.21;100707.41;5393685;32;35568;-70
2022/05/15 07:36:56;;;;;;;5.72;2.20;;;;;;;29.88;20.12;100722.63;5380250;32;34295;-67
2022/05/15 07:39:58;;;;;;;5.32;1.85;;;;;;;29.56;20.21;100710.09;5391332;32;34796;-70
2022/05/15 07:43:05;;;;;;;4.95;1.90;;;;;;;30.20;19.50;100723.47;5388158;32;35244;-70
2022/05/15 07:46:07;;;;;;;4.85;2.00;;;;;;;31.50;18.17;100719.63;5380960;32;34955;-68
2022/05/15 07:49:10;;;;;;;5.87;2.00;;;;;;;33.51;16.24;100703.19;5397611;32;34821;-69
2022/05/15 07:52:13;;;;;;;8.18;2.40;;;;;;;33.71;15.88;100708.72;5379930;32;34143;-67
2022/05/15 07:55:15;;;;;;;4.93;2.03;;;;;;;34.09;15.51;100703.62;5383035;32;35137;-72
2022/05/15 07:58:17;;;;;;;3.80;1.70;;;;;;;34.25;15.41;100710.56;5380700;32;34859;-71
2022/05/15 08:01:19;;;;;;;4.55;1.73;;;;;;;32.55;16.56;100721.06;5385471;32;45508;-69
2022/05/15 08:04:22;;;;;;;4.60;1.75;;;;;;;34.12;14.98;100707.81;5392772;32;34882;-71
2022/05/15 08:10:46;;;;;;;5.80;1.70;;;;;;;34.82;14.32;100697.41;5395579;32;35723;-66
2022/05/15 08:13:49;;;;;;;6.18;1.83;;;;;;;34.50;14.26;100699.09;5367101;32;35270;-71
2022/05/15 08:16:51;;;;;;;5.65;2.03;;;;;;;32.90;15.72;100704.84;5382166;32;44592;-68
2022/05/15 08:26:37;;;;;;;5.45;1.90;;;;;;;32.71;16.58;100704.47;5388178;32;35680;-68
2022/05/15 08:29:39;;;;;;;4.53;1.58;;;;;;;33.66;15.97;100703.03;5383806;32;35861;-67
2022/05/15 08:32:41;;;;;;;5.70;1.77;;;;;;;31.14;18.02;100695.06;5382292;32;35198;-67
2022/05/15 08:35:44;;;;;;;7.50;1.92;;;;;;;32.26;17.25;100706.53;5385927;32;34624;-67
2022/05/15 08:38:46;;;;;;;5.97;1.75;;;;;;;33.11;16.38;100705.66;5382324;32;34005;-69
2022/05/15 08:42:23;;;;;;;5.35;1.75;;;;;;;32.33;17.27;100712.06;5384652;32;34890;-73
2022/05/15 08:45:29;;;;;;;3.92;1.60;;;;;;;30.11;19.45;100716.44;5384342;32;34801;-69
2022/05/15 08:48:35;;;;;;;6.10;2.00;;;;;;;31.20;18.05;100701.63;5383969;32;35211;-67
2022/05/15 08:51:47;;;;;;;6.82;1.80;;;;;;;30.99;18.58;100711.34;5370616;32;34950;-69
2022/05/15 08:55:09;;;;;;;5.90;1.80;;;;;;;34.07;15.46;100685.78;5369298;32;43827;-67
2022/05/15 08:58:51;;;;;;;6.93;1.95;;;;;;;32.70;17.16;100700.06;5380938;32;34315;-67
2022/05/15 09:01:55;;;;;;;7.10;1.90;;;;;;;33.83;15.67;100696.19;5367556;32;34457;-72
2022/05/15 09:04:58;;;;;;;5.95;1.60;;;;;;;34.60;15.17;100696.81;5389242;32;34734;-66
2022/05/15 09:08:09;;;;;;;5.55;1.73;;;;;;;35.33;14.25;100683.91;5393081;32;35648;-71
2022/05/15 09:11:11;;;;;;;;;;;;;;;32.73;16.02;100683.34;5371822;32;34995;-67
2022/05/15 09:14:20;;;;;;;3.75;1.60;;;;;;;35.90;13.53;100687.69;5386896;32;34936;-71
2022/05/15 09:17:38;;;;;;;7.28;2.10;;;;;;;35.41;13.93;100677.34;5366836;32;44218;-71
2022/05/15 09:20:47;;;;;;;5.55;1.60;;;;;;;35.43;14.26;100678.84;5392124;32;34275;-70
2022/05/15 09:23:53;;;;;;;5.18;1.80;;;;;;;34.64;14.87;100685.22;5384090;32;44595;-67
2022/05/15 09:27:16;;;;;;;6.72;2.03;;;;;;;33.61;15.87;100686.44;5359621;32;36306;-67
2022/05/15 09:30:19;;;;;;;5.80;1.77;;;;;;;30.73;19.17;100698.19;5385247;32;42979;-68
2022/05/15 09:33:36;;;;;;;5.80;1.87;;;;;;;33.39;16.59;100691.16;5379793;32;37411;-71
2022/05/15 09:36:43;;;;;;;6.43;2.20;;;;;;;35.32;14.53;100679.50;5389414;32;34784;-66
2022/05/15 09:39:48;;;;;;;6.22;1.90;;;;;;;32.48;17.06;100696.53;5380676;32;34836;-69
2022/05/15 09:46:20;;;;;;;3.22;1.62;;;;;;;35.97;13.32;100683.03;5396785;32;35326;-70
2022/05/15 09:49:24;;;;;;;5.07;1.70;;;;;;;32.16;16.37;100686.16;5369029;32;44476;-67
2022/05/15 09:52:36;;;;;;;4.93;1.52;;;;;;;32.66;16.05;100682.47;5377116;32;35335;-72
2022/05/15 09:55:38;;;;;;;5.90;1.70;;;;;;;31.15;17.44;100677.72;5379954;32;34346;-69
2022/05/15 09:58:43;;;;;;;5.43;1.40;;;;;;;34.80;14.34;100670.31;5367961;32;34962;-69
2022/05/15 10:01:56;;;;;;;4.70;1.50;;;;;;;36.35;13.10;100666.56;5397859;32;34904;-68
2022/05/15 10:04:59;;;;;;;5.62;1.80;;;;;;;36.25;13.25;100670.84;5379909;32;45249;-71
2022/05/15 10:08:04;;;;;;;9.00;1.67;;;;;;;36.67;12.51;100671.19;5393031;32;34839;-68
2022/05/15 10:11:11;;;;;;;3.85;1.67;;;;;;;34.97;13.62;100678.94;5373968;32;34920;-72
2022/05/15 10:14:25;;;;;;;5.25;1.75;;;;;;;34.05;14.65;100677.81;5363720;32;35024;-72
2022/05/15 10:17:28;;;;;;;4.95;1.73;;;;;;;31.55;16.41;100686.44;5395791;32;45870;-72
2022/05/15 10:20:34;;;;;;;4.60;1.60;;;;;;;33.63;14.62;100676.19;5383643;32;34142;-72
2022/05/15 10:24:01;;;;;;;4.37;1.70;;;;;;;31.20;16.73;100685.31;5375928;32;34955;-68
2022/05/15 10:27:24;;;;;;;3.25;1.55;;;;;;;32.32;15.95;100678.56;5361498;32;37309;-69
2022/05/15 10:30:32;;;;;;;7.68;2.15;;;;;;;30.16;18.10;100676.09;5368373;32;45844;-71
2022/05/15 10:33:43;;;;;;;5.95;1.70;;;;;;;31.99;16.09;100666.50;5397605;32;34761;-72
2022/05/15 10:37:25;;;;;;;3.67;1.70;;;;;;;33.23;15.02;100662.31;5368695;32;35238;-69
2022/05/15 10:40:41;;;;;;;8.93;2.08;;;;;;;32.76;15.63;100638.56;5371533;32;35273;-67
2022/05/15 10:43:59;;;;;;;3.90;1.62;;;;;;;33.84;15.06;100650.69;5379866;32;34231;-72
2022/05/15 10:47:17;;;;;;;5.05;1.60;;;;;;;34.62;14.46;100653.75;5381808;32;34792;-68
2022/05/15 10:50:41;;;;;;;6.93;1.90;;;;;;;33.00;15.73;100645.47;5398186;32;44695;-68
2022/05/15 10:57:29;;;;;;;4.70;2.20;;;;;;;33.88;14.64;100660.13;5354250;32;34560;-68
2022/05/15 11:00:59;;;;;;;6.10;2.10;;;;;;;36.57;12.95;100645.12;5380148;32;34283;-68
2022/05/15 11:04:42;;;;;;;4.65;1.67;;;;;;;34.32;14.80;100635.03;5362128;32;34756;-71
2022/05/15 11:07:53;;;;;;;8.32;2.10;;;;;;;32.56;16.33;100649.31;5348949;32;34529;-68
2022/05/15 11:11:01;;;;;;;5.43;1.67;;;;;;;33.22;15.66;100651.66;5388450;32;46065;-67
2022/05/15 11:14:28;;;;;;;6.53;2.17;;;;;;;35.72;13.71;100635.62;5370869;32;35026;-72
2022/05/15 11:17:49;;;;;;;6.37;1.77;;;;;;;37.10;12.17;100630.97;5384260;32;34292;-67
2022/05/15 11:20:55;;;;;;;6.18;1.87;;;;;;;33.78;14.82;100632.41;5397683;32;45311;-72
2022/05/15 11:24:01;;;;;;;10.80;2.90;;;;;;;35.51;13.69;100639.50;5359435;32;35462;-73
2022/05/15 11:27:12;;;;;;;6.53;1.45;;;;;;;36.31;12.84;100631.66;5373625;32;34576;-66
2022/05/15 11:30:25;;;;;;;7.18;1.92;;;;;;;36.41;12.40;100632.03;5370498;32;34522;-68
2022/05/15 11:33:51;;;;;;;8.93;2.50;;;;;;;34.21;14.29;100622.03;5360160;32;44616;-68
2022/05/15 11:36:53;;;;;;;6.53;1.75;;;;;;;36.46;12.42;100613.06;5395545;32;44523;-69
2022/05/15 11:39:59;;;;;;;5.30;1.73;;;;;;;35.36;12.60;100608.84;5384585;32;34338;-71
2022/05/15 11:43:26;;;;;;;4.18;1.55;;;;;;;35.09;13.24;100608.09;5397191;32;34985;-67
2022/05/15 11:46:46;;;;;;;4.43;1.50;;;;;;;34.17;14.47;100598.94;5369313;32;44518;-70
2022/05/15 11:50:09;;;;;;;3.78;1.58;;;;;;;33.42;16.05;100612.59;5384165;32;44675;-69
2022/05/15 11:53:13;;;;;;;6.35;1.73;;;;;;;34.56;14.70;100619.13;5379836;32;34541;-67
2022/05/15 11:56:28;;;;;;;6.35;2.00;;;;;;;32.94;16.08;100613.59;5368787;32;34959;-68
2022/05/15 11:59:33;;;;;;;9.63;2.20;;;;;;;31.48;17.31;100618.44;5371498;32;35299;-71
2022/05/15 12:02:35;;;;;;;6.82;1.85;;;;;;;34.30;15.07;100603.56;5371817;32;34614;-70
2022/05/15 12:06:02;;;;;;;6.40;1.60;;;;;;;32.01;16.87;100608.22;5383829;32;34701;-68
2022/05/15 12:09:16;;;;;;;5.20;1.50;;;;;;;32.73;16.59;100592.72;5399222;32;35057;-71
2022/05/15 12:15:32;;;;;;;5.45;1.92;;;;;;;34.55;15.08;100593.72;5395391;32;44954;-70
2022/05/15 12:18:36;;;;;;;3.92;1.70;;;;;;;34.58;14.89;100589.72;5383644;32;35012;-68
2022/05/15 12:21:46;;;;;;;8.52;2.75;;;;;;;31.10;17.42;100601.44;5354443;32;33117;-69
2022/05/15 12:24:49;;;;;;;9.55;2.45;;;;;;;29.49;19.47;100587.19;5362796;32;35220;-67
2022/05/15 12:31:36;;;;;;;5.22;2.05;;;;;;;30.14;19.56;100596.78;5390672;32;35319;-69
2022/05/15 12:34:49;;;;;;;3.42;2.12;;;;;;;29.44;19.82;100592.31;5386784;32;34663;-67
2022/05/15 12:37:55;;;;;;;4.43;2.10;;;;;;;29.21;19.63;100577.88;5381269;32;44777;-70
2022/05/15 12:41:07;;;;;;;3.90;1.87;;;;;;;29.76;19.30;100568.81;5384751;32;34896;-67
2022/05/15 12:44:11;;;;;;;6.70;2.05;;;;;;;29.75;19.45;100575.22;5385176;32;34963;-67
2022/05/15 12:47:21;;;;;;;4.90;2.10;;;;;;;28.52;20.02;100575.69;5393592;32;34552;-69
2022/05/15 12:50:23;;;;;;;4.80;1.70;;;;;;;28.73;20.44;100583.28;5364933;32;45296;-69
2022/05/15 12:53:28;;;;;;;5.62;1.92;;;;;;;28.71;20.80;100577.16;5382479;32;36127;-70
2022/05/15 12:56:34;;;;;;;4.90;2.33;;;;;;;29.04;20.58;100571.69;5383459;32;34886;-71
2022/05/15 12:59:42;;;;;;;3.97;1.70;;;;;;;27.30;21.95;100572.81;5386733;32;34153;-70
2022/05/15 13:02:45;;;;;;;4.75;2.15;;;;;;;27.63;22.16;100556.72;5396709;32;35006;-71
2022/05/15 13:05:47;;;;;;;3.62;1.95;;;;;;;27.83;22.39;100562.72;5370097;32;35107;-71
2022/05/15 13:08:53;;;;;;;5.53;2.05;;;;;;;28.23;21.66;100548.34;5383563;32;43192;-67
2022/05/15 13:11:58;;;;;;;5.75;1.70;;;;;;;27.70;22.34;100557.78;5378612;32;36448;-69
2022/05/15 13:15:03;;;;;;;4.78;1.70;;;;;;;28.53;21.50;100552.19;5380446;32;36001;-71
2022/05/15 13:18:08;;;;;;;3.95;1.73;;;;;;;28.83;20.38;100561.41;5382047;32;35015;-69
2022/05/15 13:21:11;;;;;;;4.70;1.62;;;;;;;28.85;20.56;100551.25;5356588;32;34350;-68
2022/05/15 13:24:13;;;;;;;;;;;;;;;28.80;20.47;100551.81;5385801;32;34583;-68
2022/05/15 13:27:16;;;;;;;;;;;;;;;29.31;20.00;100533.34;5363337;32;35071;-72
2022/05/15 13:30:21;;;;;;;4.18;1.90;;;;;;;28.55;21.11;100540.22;5383921;32;35056;-69
2022/05/15 13:33:26;;;;;;;4.65;1.80;;;;;;;28.70;20.86;100518.69;5375978;32;44736;-67
2022/05/15 13:36:28;;;;;;;6.62;2.12;;;;;;;29.17;20.13;100531.38;5368761;32;34931;-68
2022/05/15 13:46:34;;;;;;;7.80;2.00;;;;;;;28.99;20.70;100520.81;5383044;32;36571;-67
2022/05/15 13:49:41;;;;;;;5.30;2.25;;;;;;;29.82;19.87;100516.59;5386018;32;34269;-65
2022/05/15 13:52:43;;;;;;;7.37;2.42;;;;;;;27.95;22.34;100524.41;5382739;32;35922;-67
2022/05/15 13:55:46;;;;;;;;;;;;;;;29.07;20.86;100518.06;5398611;32;34793;-68
2022/05/15 13:58:53;;;;;;;;;;;;;;;28.76;21.21;100514.44;5384246;32;35189;-67
2022/05/15 14:02:15;;;;;;;5.97;1.90;;;;;;;28.27;22.01;100512.72;5368010;32;48350;-70
2022/05/15 14:05:17;;;;;;;7.40;2.28;;;;;;;28.33;21.87;100511.19;5398662;32;35437;-67
2022/05/15 14:08:21;;;;;;;4.28;1.87;;;;;;;28.28;21.64;100508.16;5382473;32;46987;-66
2022/05/15 14:11:23;;;;;;;6.37;2.08;;;;;;;28.38;21.61;100510.69;5385100;32;35534;-71
2022/05/15 14:14:52;;;;;;;5.75;2.20;;;;;;;29.18;21.05;100507.87;5376655;32;36241;-71
2022/05/15 14:17:58;;;;;;;5.37;2.20;;;;;;;28.59;21.57;100506.38;5366125;32;44809;-67
2022/05/15 14:21:15;;;;;;;5.57;2.30;;;;;;;27.77;22.66;100491.31;5371423;32;34886;-67
2022/05/15 14:24:19;;;;;;;5.03;2.10;;;;;;;28.77;21.50;100502.63;5368975;32;34178;-70
2022/05/15 14:27:22;;;;;;;10.02;2.87;;;;;;;28.91;21.45;100501.87;5389891;32;44765;-71
2022/05/15 14:30:25;;;;;;;5.12;2.10;;;;;;;28.72;21.46;100491.47;5384480;32;34375;-66
2022/05/15 14:33:28;;;;;;;4.05;1.75;;;;;;;27.63;22.73;100489.22;5374734;32;34570;-67
2022/05/15 14:36:32;;;;;;;4.03;1.98;;;;;;;28.35;22.18;100478.59;5390726;32;34364;-68
2022/05/15 14:39:35;;;;;;;6.35;2.75;;;;;;;28.20;22.00;100489.22;5384872;32;33303;-69
2022/05/15 14:42:38;;;;;;;4.20;2.00;;;;;;;27.93;22.15;100485.03;5394310;32;35086;-67
2022/05/15 14:45:44;;;;;;;5.60;2.30;;;;;;;28.44;21.71;100493.78;5367952;32;34179;-68
2022/05/15 14:48:48;;;;;;;6.07;2.12;;;;;;;28.48;21.77;100482.44;5398147;32;35606;-69
2022/05/15 14:51:50;;;;;;;4.35;1.92;;;;;;;28.75;21.30;100472.22;5367319;32;44594;-72
2022/05/15 14:54:52;;;;;;;5.93;2.00;;;;;;;27.95;22.32;100481.19;5386798;32;34408;-66
2022/05/15 14:57:54;;;;;;;7.03;2.30;;;;;;;28.39;21.89;100475.34;5394185;32;35567;-72
2022/05/15 15:00:57;;;;;;;4.43;1.95;;;;;;;28.59;21.78;100486.62;5368562;32;35161;-70
2022/05/15 15:04:00;;;;;;;5.97;2.20;;;;;;;28.67;21.42;100473.09;5397880;32;34704;-71
2022/05/15 15:07:04;;;;;;;5.60;2.00;;;;;;;28.26;21.67;100470.47;5365099;32;33661;-67